sensor_id;sensor_type;location;lat;lon;timestamp;temperature;humidity
67777;DHT22;54576;52.020;5.536;2022-08-30T00:00:50;16.20;70.70
67777;DHT22;54576;52.020;5.536;2022-08-30T00:03:36;16.20;71.00
67777;DHT22;54576;52.020;5.536;2022-08-30T00:06:04;16.20;71.00
67777;DHT22;54576;52.020;5.536;2022-08-30T00:08:34;16.10;70.90
67777;DHT22;54576;52.020;5.536;2022-08-30T00:11:01;16.00;71.00
67777;DHT22;54576;52.020;5.536;2022-08-30T00:13:27;16.00;71.20
67777;DHT22;54576;52.020;5.536;2022-08-30T00:15:54;15.90;72.10
67777;DHT22;54576;52.020;5.536;2022-08-30T00:18:20;15.90;71.40
67777;DHT22;54576;52.020;5.536;2022-08-30T00:20:47;15.80;71.40
67777;DHT22;54576;52.020;5.536;2022-08-30T00:23:13;15.80;71.40
67777;DHT22;54576;52.020;5.536;2022-08-30T00:25:39;15.70;71.60
67777;DHT22;54576;52.020;5.536;2022-08-30T00:28:05;15.60;71.80
67777;DHT22;54576;52.020;5.536;2022-08-30T00:30:31;15.50;71.90
67777;DHT22;54576;52.020;5.536;2022-08-30T00:32:56;15.40;72.00
67777;DHT22;54576;52.020;5.536;2022-08-30T00:35:23;15.40;72.20
67777;DHT22;54576;52.020;5.536;2022-08-30T00:37:49;15.30;72.30
67777;DHT22;54576;52.020;5.536;2022-08-30T00:40:16;15.20;72.40
67777;DHT22;54576;52.020;5.536;2022-08-30T00:42:43;15.10;72.50
67777;DHT22;54576;52.020;5.536;2022-08-30T00:45:22;15.10;72.70
67777;DHT22;54576;52.020;5.536;2022-08-30T00:47:49;15.00;72.70
67777;DHT22;54576;52.020;5.536;2022-08-30T00:50:16;14.90;72.70
67777;DHT22;54576;52.020;5.536;2022-08-30T00:52:45;14.90;72.90
67777;DHT22;54576;52.020;5.536;2022-08-30T00:55:14;14.90;72.90
67777;DHT22;54576;52.020;5.536;2022-08-30T00:57:42;14.80;72.90
67777;DHT22;54576;52.020;5.536;2022-08-30T01:00:10;14.80;73.00
67777;DHT22;54576;52.020;5.536;2022-08-30T01:02:36;14.80;73.10
67777;DHT22;54576;52.020;5.536;2022-08-30T01:05:03;14.80;73.20
67777;DHT22;54576;52.020;5.536;2022-08-30T01:07:29;14.80;73.30
67777;DHT22;54576;52.020;5.536;2022-08-30T01:09:56;14.70;73.20
67777;DHT22;54576;52.020;5.536;2022-08-30T01:12:21;14.70;73.20
67777;DHT22;54576;52.020;5.536;2022-08-30T01:14:48;14.70;73.20
67777;DHT22;54576;52.020;5.536;2022-08-30T01:17:15;14.60;73.30
67777;DHT22;54576;52.020;5.536;2022-08-30T01:19:47;14.60;73.20
67777;DHT22;54576;52.020;5.536;2022-08-30T01:25:08;14.60;73.40
67777;DHT22;54576;52.020;5.536;2022-08-30T01:27:41;14.50;73.30
67777;DHT22;54576;52.020;5.536;2022-08-30T01:30:08;14.50;73.30
67777;DHT22;54576;52.020;5.536;2022-08-30T01:32:42;14.50;73.40
67777;DHT22;54576;52.020;5.536;2022-08-30T01:35:10;14.40;73.40
67777;DHT22;54576;52.020;5.536;2022-08-30T01:37:36;14.40;73.40
67777;DHT22;54576;52.020;5.536;2022-08-30T01:40:03;14.30;73.40
67777;DHT22;54576;52.020;5.536;2022-08-30T01:42:30;14.30;73.50
67777;DHT22;54576;52.020;5.536;2022-08-30T01:44:56;14.30;73.60
67777;DHT22;54576;52.020;5.536;2022-08-30T01:47:22;14.30;73.70
67777;DHT22;54576;52.020;5.536;2022-08-30T01:49:48;14.30;73.80
67777;DHT22;54576;52.020;5.536;2022-08-30T01:52:15;14.20;73.80
67777;DHT22;54576;52.020;5.536;2022-08-30T01:54:42;14.30;73.90
67777;DHT22;54576;52.020;5.536;2022-08-30T01:57:11;14.30;74.00
67777;DHT22;54576;52.020;5.536;2022-08-30T01:59:37;14.40;74.00
67777;DHT22;54576;52.020;5.536;2022-08-30T02:02:04;14.30;73.80
67777;DHT22;54576;52.020;5.536;2022-08-30T02:04:30;14.40;73.80
67777;DHT22;54576;52.020;5.536;2022-08-30T02:06:55;14.30;73.80
67777;DHT22;54576;52.020;5.536;2022-08-30T02:09:21;14.30;73.70
67777;DHT22;54576;52.020;5.536;2022-08-30T02:11:46;14.20;73.70
67777;DHT22;54576;52.020;5.536;2022-08-30T02:14:13;14.20;73.90
67777;DHT22;54576;52.020;5.536;2022-08-30T02:16:39;14.10;73.90
67777;DHT22;54576;52.020;5.536;2022-08-30T02:19:06;14.10;74.00
67777;DHT22;54576;52.020;5.536;2022-08-30T02:21:31;14.10;74.00
67777;DHT22;54576;52.020;5.536;2022-08-30T02:23:57;14.00;74.00
67777;DHT22;54576;52.020;5.536;2022-08-30T02:26:23;14.00;74.10
67777;DHT22;54576;52.020;5.536;2022-08-30T02:28:50;13.90;74.10
67777;DHT22;54576;52.020;5.536;2022-08-30T02:31:17;13.90;74.20
67777;DHT22;54576;52.020;5.536;2022-08-30T02:33:43;13.90;74.30
67777;DHT22;54576;52.020;5.536;2022-08-30T02:36:09;13.90;74.30
67777;DHT22;54576;52.020;5.536;2022-08-30T02:38:35;13.90;74.50
67777;DHT22;54576;52.020;5.536;2022-08-30T02:41:00;13.80;74.50
67777;DHT22;54576;52.020;5.536;2022-08-30T02:43:26;13.80;74.50
67777;DHT22;54576;52.020;5.536;2022-08-30T02:45:52;13.70;74.40
67777;DHT22;54576;52.020;5.536;2022-08-30T02:48:18;13.70;74.40
67777;DHT22;54576;52.020;5.536;2022-08-30T02:50:46;13.70;74.50
67777;DHT22;54576;52.020;5.536;2022-08-30T02:53:12;13.70;74.60
67777;DHT22;54576;52.020;5.536;2022-08-30T02:55:38;13.70;74.60
67777;DHT22;54576;52.020;5.536;2022-08-30T02:58:04;13.70;74.60
67777;DHT22;54576;52.020;5.536;2022-08-30T03:00:30;13.70;74.70
67777;DHT22;54576;52.020;5.536;2022-08-30T03:02:55;13.60;74.60
67777;DHT22;54576;52.020;5.536;2022-08-30T03:05:21;13.60;74.60
67777;DHT22;54576;52.020;5.536;2022-08-30T03:07:47;13.60;74.60
67777;DHT22;54576;52.020;5.536;2022-08-30T03:10:13;13.60;74.70
67777;DHT22;54576;52.020;5.536;2022-08-30T03:12:39;13.60;75.50
67777;DHT22;54576;52.020;5.536;2022-08-30T03:15:07;13.50;74.70
67777;DHT22;54576;52.020;5.536;2022-08-30T03:17:34;13.40;74.70
67777;DHT22;54576;52.020;5.536;2022-08-30T03:20:00;13.40;74.70
67777;DHT22;54576;52.020;5.536;2022-08-30T03:22:27;13.40;74.80
67777;DHT22;54576;52.020;5.536;2022-08-30T03:24:52;13.40;74.80
67777;DHT22;54576;52.020;5.536;2022-08-30T03:27:22;13.30;74.70
67777;DHT22;54576;52.020;5.536;2022-08-30T03:29:47;13.20;74.70
67777;DHT22;54576;52.020;5.536;2022-08-30T03:32:13;13.20;74.80
67777;DHT22;54576;52.020;5.536;2022-08-30T03:34:39;13.20;74.80
67777;DHT22;54576;52.020;5.536;2022-08-30T03:37:04;13.10;74.80
67777;DHT22;54576;52.020;5.536;2022-08-30T03:39:30;13.10;74.90
67777;DHT22;54576;52.020;5.536;2022-08-30T03:41:56;13.10;74.90
67777;DHT22;54576;52.020;5.536;2022-08-30T03:44:22;13.10;75.10
67777;DHT22;54576;52.020;5.536;2022-08-30T03:46:47;13.10;75.00
67777;DHT22;54576;52.020;5.536;2022-08-30T03:49:14;13.10;75.10
67777;DHT22;54576;52.020;5.536;2022-08-30T03:51:40;13.10;75.20
67777;DHT22;54576;52.020;5.536;2022-08-30T03:54:05;13.10;75.20
67777;DHT22;54576;52.020;5.536;2022-08-30T03:56:31;13.10;75.20
67777;DHT22;54576;52.020;5.536;2022-08-30T03:58:56;13.10;75.20
67777;DHT22;54576;52.020;5.536;2022-08-30T04:01:22;13.10;75.30
67777;DHT22;54576;52.020;5.536;2022-08-30T04:03:47;13.00;75.20
67777;DHT22;54576;52.020;5.536;2022-08-30T04:06:13;13.10;75.20
67777;DHT22;54576;52.020;5.536;2022-08-30T04:08:38;13.00;75.10
67777;DHT22;54576;52.020;5.536;2022-08-30T04:11:05;13.00;75.30
67777;DHT22;54576;52.020;5.536;2022-08-30T04:13:31;12.90;75.20
67777;DHT22;54576;52.020;5.536;2022-08-30T04:15:58;12.90;75.20
67777;DHT22;54576;52.020;5.536;2022-08-30T04:18:24;12.90;75.30
67777;DHT22;54576;52.020;5.536;2022-08-30T04:20:50;12.90;75.40
67777;DHT22;54576;52.020;5.536;2022-08-30T04:23:16;12.90;75.40
67777;DHT22;54576;52.020;5.536;2022-08-30T04:25:42;12.90;75.30
67777;DHT22;54576;52.020;5.536;2022-08-30T04:28:09;12.90;75.30
67777;DHT22;54576;52.020;5.536;2022-08-30T04:30:41;12.80;75.40
67777;DHT22;54576;52.020;5.536;2022-08-30T04:33:08;12.80;75.40
67777;DHT22;54576;52.020;5.536;2022-08-30T04:35:34;12.80;75.50
67777;DHT22;54576;52.020;5.536;2022-08-30T04:38:01;12.70;75.50
67777;DHT22;54576;52.020;5.536;2022-08-30T04:40:26;12.70;75.50
67777;DHT22;54576;52.020;5.536;2022-08-30T04:42:52;12.70;75.60
67777;DHT22;54576;52.020;5.536;2022-08-30T04:45:20;12.70;75.70
67777;DHT22;54576;52.020;5.536;2022-08-30T04:47:46;12.70;75.80
67777;DHT22;54576;52.020;5.536;2022-08-30T04:50:16;12.70;75.70
67777;DHT22;54576;52.020;5.536;2022-08-30T04:52:42;12.70;75.70
67777;DHT22;54576;52.020;5.536;2022-08-30T04:55:09;12.70;75.70
67777;DHT22;54576;52.020;5.536;2022-08-30T04:57:36;12.70;75.70
67777;DHT22;54576;52.020;5.536;2022-08-30T05:00:04;12.70;75.70
67777;DHT22;54576;52.020;5.536;2022-08-30T05:02:30;12.60;75.60
67777;DHT22;54576;52.020;5.536;2022-08-30T05:04:55;12.60;75.60
67777;DHT22;54576;52.020;5.536;2022-08-30T05:07:40;12.60;75.70
67777;DHT22;54576;52.020;5.536;2022-08-30T05:10:06;12.60;75.70
67777;DHT22;54576;52.020;5.536;2022-08-30T05:12:31;12.60;75.80
67777;DHT22;54576;52.020;5.536;2022-08-30T05:14:57;12.60;75.90
67777;DHT22;54576;52.020;5.536;2022-08-30T05:17:23;12.70;76.00
67777;DHT22;54576;52.020;5.536;2022-08-30T05:19:49;12.70;75.70
67777;DHT22;54576;52.020;5.536;2022-08-30T05:22:14;12.80;75.70
67777;DHT22;54576;52.020;5.536;2022-08-30T05:24:40;12.90;75.50
67777;DHT22;54576;52.020;5.536;2022-08-30T05:27:06;13.00;75.40
67777;DHT22;54576;52.020;5.536;2022-08-30T05:29:31;13.00;75.20
67777;DHT22;54576;52.020;5.536;2022-08-30T05:31:57;13.10;75.10
67777;DHT22;54576;52.020;5.536;2022-08-30T05:34:23;13.20;75.10
67777;DHT22;54576;52.020;5.536;2022-08-30T05:36:49;13.20;75.10
67777;DHT22;54576;52.020;5.536;2022-08-30T05:39:14;13.30;75.10
67777;DHT22;54576;52.020;5.536;2022-08-30T05:41:40;13.30;75.00
67777;DHT22;54576;52.020;5.536;2022-08-30T05:44:07;13.40;75.10
67777;DHT22;54576;52.020;5.536;2022-08-30T05:46:34;13.50;75.10
67777;DHT22;54576;52.020;5.536;2022-08-30T05:49:02;13.60;74.90
67777;DHT22;54576;52.020;5.536;2022-08-30T05:51:29;14.10;74.70
67777;DHT22;54576;52.020;5.536;2022-08-30T05:53:57;14.90;74.00
67777;DHT22;54576;52.020;5.536;2022-08-30T05:56:29;15.60;72.60
67777;DHT22;54576;52.020;5.536;2022-08-30T05:58:55;16.00;71.90
67777;DHT22;54576;52.020;5.536;2022-08-30T06:01:30;16.50;71.80
67777;DHT22;54576;52.020;5.536;2022-08-30T06:03:57;16.60;72.20
67777;DHT22;54576;52.020;5.536;2022-08-30T06:06:23;16.80;71.60
67777;DHT22;54576;52.020;5.536;2022-08-30T06:08:49;17.00;71.70
67777;DHT22;54576;52.020;5.536;2022-08-30T06:11:17;17.30;71.10
67777;DHT22;54576;52.020;5.536;2022-08-30T06:13:45;17.30;71.50
67777;DHT22;54576;52.020;5.536;2022-08-30T06:16:13;17.50;71.70
67777;DHT22;54576;52.020;5.536;2022-08-30T06:18:39;17.80;71.50
67777;DHT22;54576;52.020;5.536;2022-08-30T06:21:05;18.10;71.30
67777;DHT22;54576;52.020;5.536;2022-08-30T06:23:31;18.40;70.90
67777;DHT22;54576;52.020;5.536;2022-08-30T06:26:03;18.70;70.80
67777;DHT22;54576;52.020;5.536;2022-08-30T06:28:29;18.90;70.40
67777;DHT22;54576;52.020;5.536;2022-08-30T06:30:55;19.10;70.10
67777;DHT22;54576;52.020;5.536;2022-08-30T06:33:23;19.40;69.70
67777;DHT22;54576;52.020;5.536;2022-08-30T06:35:49;19.40;69.90
67777;DHT22;54576;52.020;5.536;2022-08-30T06:38:15;19.40;70.00
67777;DHT22;54576;52.020;5.536;2022-08-30T06:40:41;19.70;70.00
67777;DHT22;54576;52.020;5.536;2022-08-30T06:43:06;19.60;69.80
67777;DHT22;54576;52.020;5.536;2022-08-30T06:45:34;19.20;70.20
67777;DHT22;54576;52.020;5.536;2022-08-30T06:48:00;19.20;70.60
67777;DHT22;54576;52.020;5.536;2022-08-30T06:50:26;18.90;71.00
67777;DHT22;54576;52.020;5.536;2022-08-30T06:52:52;19.10;71.00
67777;DHT22;54576;52.020;5.536;2022-08-30T06:55:18;19.30;70.70
67777;DHT22;54576;52.020;5.536;2022-08-30T06:57:45;19.70;70.00
67777;DHT22;54576;52.020;5.536;2022-08-30T07:00:13;19.90;70.70
67777;DHT22;54576;52.020;5.536;2022-08-30T07:02:40;20.20;69.20
67777;DHT22;54576;52.020;5.536;2022-08-30T07:05:07;20.30;68.70
67777;DHT22;54576;52.020;5.536;2022-08-30T07:07:36;20.20;68.60
67777;DHT22;54576;52.020;5.536;2022-08-30T07:10:06;20.30;68.40
67777;DHT22;54576;52.020;5.536;2022-08-30T07:12:32;20.50;66.90
67777;DHT22;54576;52.020;5.536;2022-08-30T07:14:57;20.30;67.10
67777;DHT22;54576;52.020;5.536;2022-08-30T07:17:23;20.00;67.00
67777;DHT22;54576;52.020;5.536;2022-08-30T07:20:07;19.80;67.10
67777;DHT22;54576;52.020;5.536;2022-08-30T07:22:33;19.60;67.40
67777;DHT22;54576;52.020;5.536;2022-08-30T07:24:59;19.60;67.40
67777;DHT22;54576;52.020;5.536;2022-08-30T07:27:24;19.50;67.10
67777;DHT22;54576;52.020;5.536;2022-08-30T07:29:50;19.40;68.00
67777;DHT22;54576;52.020;5.536;2022-08-30T07:32:16;19.30;66.70
67777;DHT22;54576;52.020;5.536;2022-08-30T07:34:41;19.30;66.90
67777;DHT22;54576;52.020;5.536;2022-08-30T07:37:07;19.30;66.30
67777;DHT22;54576;52.020;5.536;2022-08-30T07:39:33;19.20;66.30
67777;DHT22;54576;52.020;5.536;2022-08-30T07:41:58;19.20;66.10
67777;DHT22;54576;52.020;5.536;2022-08-30T07:44:24;19.30;66.10
67777;DHT22;54576;52.020;5.536;2022-08-30T07:46:49;19.30;65.50
67777;DHT22;54576;52.020;5.536;2022-08-30T07:49:15;19.30;65.40
67777;DHT22;54576;52.020;5.536;2022-08-30T07:51:42;19.40;65.40
67777;DHT22;54576;52.020;5.536;2022-08-30T07:54:07;19.40;65.30
67777;DHT22;54576;52.020;5.536;2022-08-30T07:56:33;19.50;64.80
67777;DHT22;54576;52.020;5.536;2022-08-30T07:58:59;19.50;65.00
67777;DHT22;54576;52.020;5.536;2022-08-30T08:01:25;19.60;64.80
67777;DHT22;54576;52.020;5.536;2022-08-30T08:03:50;19.60;64.50
67777;DHT22;54576;52.020;5.536;2022-08-30T08:06:19;19.70;95.20
67777;DHT22;54576;52.020;5.536;2022-08-30T08:08:45;19.80;94.90
67777;DHT22;54576;52.020;5.536;2022-08-30T08:11:17;19.80;69.00
67777;DHT22;54576;52.020;5.536;2022-08-30T08:13:44;19.90;90.90
67777;DHT22;54576;52.020;5.536;2022-08-30T08:16:10;19.90;90.50
67777;DHT22;54576;52.020;5.536;2022-08-30T08:18:36;19.90;90.70
67777;DHT22;54576;52.020;5.536;2022-08-30T08:21:02;20.00;91.70
67777;DHT22;54576;52.020;5.536;2022-08-30T08:23:28;20.00;62.70
67777;DHT22;54576;52.020;5.536;2022-08-30T08:25:54;20.00;63.10
67777;DHT22;54576;52.020;5.536;2022-08-30T08:28:19;20.10;62.80
67777;DHT22;54576;52.020;5.536;2022-08-30T08:30:46;20.10;62.20
67777;DHT22;54576;52.020;5.536;2022-08-30T08:33:12;20.20;62.30
67777;DHT22;54576;52.020;5.536;2022-08-30T08:35:38;20.20;61.80
67777;DHT22;54576;52.020;5.536;2022-08-30T08:38:04;20.20;61.90
67777;DHT22;54576;52.020;5.536;2022-08-30T08:40:41;20.20;61.90
67777;DHT22;54576;52.020;5.536;2022-08-30T08:43:12;20.30;61.80
67777;DHT22;54576;52.020;5.536;2022-08-30T08:46:00;20.30;61.60
67777;DHT22;54576;52.020;5.536;2022-08-30T08:48:39;20.40;60.70
67777;DHT22;54576;52.020;5.536;2022-08-30T08:51:11;20.60;60.90
67777;DHT22;54576;52.020;5.536;2022-08-30T08:54:00;20.70;60.40
67777;DHT22;54576;52.020;5.536;2022-08-30T08:56:27;20.70;61.10
67777;DHT22;54576;52.020;5.536;2022-08-30T08:58:55;20.80;61.10
67777;DHT22;54576;52.020;5.536;2022-08-30T09:01:23;20.80;60.90
67777;DHT22;54576;52.020;5.536;2022-08-30T09:03:50;20.70;57.60
67777;DHT22;54576;52.020;5.536;2022-08-30T09:09:13;20.80;57.50
67777;DHT22;54576;52.020;5.536;2022-08-30T09:11:41;20.70;61.00
67777;DHT22;54576;52.020;5.536;2022-08-30T09:14:13;20.80;60.80
67777;DHT22;54576;52.020;5.536;2022-08-30T09:17:01;20.90;60.50
67777;DHT22;54576;52.020;5.536;2022-08-30T09:22:14;20.90;60.00
67777;DHT22;54576;52.020;5.536;2022-08-30T09:24:46;20.90;57.70
67777;DHT22;54576;52.020;5.536;2022-08-30T09:27:27;21.00;58.60
67777;DHT22;54576;52.020;5.536;2022-08-30T09:29:59;21.00;55.00
67777;DHT22;54576;52.020;5.536;2022-08-30T09:32:28;21.00;56.80
67777;DHT22;54576;52.020;5.536;2022-08-30T09:34:55;21.00;59.00
67777;DHT22;54576;52.020;5.536;2022-08-30T09:37:45;21.10;59.00
67777;DHT22;54576;52.020;5.536;2022-08-30T09:40:22;21.10;57.10
67777;DHT22;54576;52.020;5.536;2022-08-30T09:43:01;21.20;58.80
67777;DHT22;54576;52.020;5.536;2022-08-30T09:45:31;21.20;57.50
67777;DHT22;54576;52.020;5.536;2022-08-30T09:47:57;21.20;58.50
67777;DHT22;54576;52.020;5.536;2022-08-30T09:50:25;21.30;58.60
67777;DHT22;54576;52.020;5.536;2022-08-30T09:52:57;21.30;58.50
67777;DHT22;54576;52.020;5.536;2022-08-30T09:55:39;21.30;53.90
67777;DHT22;54576;52.020;5.536;2022-08-30T10:01:13;21.50;57.50
67777;DHT22;54576;52.020;5.536;2022-08-30T10:03:56;21.50;58.00
67777;DHT22;54576;52.020;5.536;2022-08-30T10:12:35;21.60;56.20
67777;DHT22;54576;52.020;5.536;2022-08-30T10:15:13;21.70;56.80
67777;DHT22;54576;52.020;5.536;2022-08-30T10:23:31;21.70;56.30
67777;DHT22;54576;52.020;5.536;2022-08-30T10:28:50;21.80;56.20
67777;DHT22;54576;52.020;5.536;2022-08-30T10:31:32;21.80;55.70
67777;DHT22;54576;52.020;5.536;2022-08-30T10:34:07;21.90;56.30
67777;DHT22;54576;52.020;5.536;2022-08-30T10:36:42;22.00;56.10
67777;DHT22;54576;52.020;5.536;2022-08-30T10:39:15;22.00;56.20
67777;DHT22;54576;52.020;5.536;2022-08-30T10:41:50;22.10;56.30
67777;DHT22;54576;52.020;5.536;2022-08-30T10:49:38;22.10;54.50
67777;DHT22;54576;52.020;5.536;2022-08-30T10:55:45;22.30;51.90
67777;DHT22;54576;52.020;5.536;2022-08-30T10:58:15;22.30;49.90
67777;DHT22;54576;52.020;5.536;2022-08-30T11:01:08;22.30;54.90
67777;DHT22;54576;52.020;5.536;2022-08-30T11:09:35;22.40;51.40
67777;DHT22;54576;52.020;5.536;2022-08-30T11:12:25;22.50;54.50
67777;DHT22;54576;52.020;5.536;2022-08-30T11:14:53;22.50;50.90
67777;DHT22;54576;52.020;5.536;2022-08-30T11:19:51;22.50;53.60
67777;DHT22;54576;52.020;5.536;2022-08-30T11:22:31;22.60;54.10
67777;DHT22;54576;52.020;5.536;2022-08-30T11:25:12;22.60;52.40
67777;DHT22;54576;52.020;5.536;2022-08-30T11:27:53;22.60;53.60
67777;DHT22;54576;52.020;5.536;2022-08-30T11:35:45;22.60;48.10
67777;DHT22;54576;52.020;5.536;2022-08-30T11:46:35;22.80;56.30
67777;DHT22;54576;52.020;5.536;2022-08-30T11:57:34;22.90;51.90
67777;DHT22;54576;52.020;5.536;2022-08-30T12:21:26;23.20;50.30
67777;DHT22;54576;52.020;5.536;2022-08-30T12:24:05;23.20;51.50
67777;DHT22;54576;52.020;5.536;2022-08-30T12:26:42;23.30;51.00
67777;DHT22;54576;52.020;5.536;2022-08-30T12:34:25;23.40;50.30
67777;DHT22;54576;52.020;5.536;2022-08-30T12:37:01;23.40;47.70
67777;DHT22;54576;52.020;5.536;2022-08-30T12:39:32;23.30;50.70
67777;DHT22;54576;52.020;5.536;2022-08-30T12:42:11;23.40;49.50
67777;DHT22;54576;52.020;5.536;2022-08-30T12:44:38;23.40;45.70
67777;DHT22;54576;52.020;5.536;2022-08-30T12:47:05;23.40;50.20
67777;DHT22;54576;52.020;5.536;2022-08-30T12:49:34;23.40;49.80
67777;DHT22;54576;52.020;5.536;2022-08-30T12:55:03;23.30;47.60
67777;DHT22;54576;52.020;5.536;2022-08-30T12:58:09;23.30;49.50
67777;DHT22;54576;52.020;5.536;2022-08-30T13:00:42;23.50;47.10
67777;DHT22;54576;52.020;5.536;2022-08-30T13:03:33;23.50;48.10
67777;DHT22;54576;52.020;5.536;2022-08-30T13:05:59;23.60;47.10
67777;DHT22;54576;52.020;5.536;2022-08-30T13:11:23;23.70;47.30
67777;DHT22;54576;52.020;5.536;2022-08-30T13:13:52;23.80;48.50
67777;DHT22;54576;52.020;5.536;2022-08-30T13:19:14;23.70;44.80
67777;DHT22;54576;52.020;5.536;2022-08-30T13:21:50;23.80;48.80
67777;DHT22;54576;52.020;5.536;2022-08-30T13:24:16;23.90;48.00
67777;DHT22;54576;52.020;5.536;2022-08-30T13:26:42;23.90;48.80
67777;DHT22;54576;52.020;5.536;2022-08-30T13:29:15;23.90;48.90
67777;DHT22;54576;52.020;5.536;2022-08-30T13:31:41;23.90;48.80
67777;DHT22;54576;52.020;5.536;2022-08-30T13:34:06;23.90;49.00
67777;DHT22;54576;52.020;5.536;2022-08-30T13:36:35;24.00;49.80
67777;DHT22;54576;52.020;5.536;2022-08-30T13:39:04;24.10;51.80
67777;DHT22;54576;52.020;5.536;2022-08-30T13:41:30;24.20;51.90
67777;DHT22;54576;52.020;5.536;2022-08-30T13:43:56;24.20;51.30
67777;DHT22;54576;52.020;5.536;2022-08-30T13:46:23;24.30;50.90
67777;DHT22;54576;52.020;5.536;2022-08-30T13:49:02;24.30;49.40
67777;DHT22;54576;52.020;5.536;2022-08-30T13:51:29;24.10;48.70
67777;DHT22;54576;52.020;5.536;2022-08-30T13:53:54;24.10;49.10
67777;DHT22;54576;52.020;5.536;2022-08-30T13:56:20;24.10;50.00
67777;DHT22;54576;52.020;5.536;2022-08-30T13:58:46;24.20;51.00
67777;DHT22;54576;52.020;5.536;2022-08-30T14:01:11;24.20;50.50
67777;DHT22;54576;52.020;5.536;2022-08-30T14:03:37;24.30;49.60
67777;DHT22;54576;52.020;5.536;2022-08-30T14:06:02;24.30;48.60
67777;DHT22;54576;52.020;5.536;2022-08-30T14:08:29;24.30;47.60
67777;DHT22;54576;52.020;5.536;2022-08-30T14:10:56;24.30;47.60
67777;DHT22;54576;52.020;5.536;2022-08-30T14:13:22;24.40;47.70
67777;DHT22;54576;52.020;5.536;2022-08-30T14:15:49;24.30;47.60
67777;DHT22;54576;52.020;5.536;2022-08-30T14:18:15;24.40;47.50
67777;DHT22;54576;52.020;5.536;2022-08-30T14:20:41;24.30;47.40
67777;DHT22;54576;52.020;5.536;2022-08-30T14:23:06;24.30;47.70
67777;DHT22;54576;52.020;5.536;2022-08-30T14:25:32;24.30;47.30
67777;DHT22;54576;52.020;5.536;2022-08-30T14:27:59;24.40;47.50
67777;DHT22;54576;52.020;5.536;2022-08-30T14:30:24;24.40;47.60
67777;DHT22;54576;52.020;5.536;2022-08-30T14:32:50;24.40;47.70
67777;DHT22;54576;52.020;5.536;2022-08-30T14:35:16;24.40;47.60
67777;DHT22;54576;52.020;5.536;2022-08-30T14:37:44;24.40;47.20
67777;DHT22;54576;52.020;5.536;2022-08-30T14:40:10;24.40;47.50
67777;DHT22;54576;52.020;5.536;2022-08-30T14:42:36;24.40;46.90
67777;DHT22;54576;52.020;5.536;2022-08-30T14:45:02;24.40;47.00
67777;DHT22;54576;52.020;5.536;2022-08-30T14:47:28;24.40;47.40
67777;DHT22;54576;52.020;5.536;2022-08-30T14:49:54;24.30;47.40
67777;DHT22;54576;52.020;5.536;2022-08-30T14:52:23;24.40;47.60
67777;DHT22;54576;52.020;5.536;2022-08-30T14:54:49;24.30;47.00
67777;DHT22;54576;52.020;5.536;2022-08-30T14:57:14;24.20;46.90
67777;DHT22;54576;52.020;5.536;2022-08-30T14:59:40;24.20;47.40
67777;DHT22;54576;52.020;5.536;2022-08-30T15:02:06;24.30;47.40
67777;DHT22;54576;52.020;5.536;2022-08-30T15:04:32;24.30;47.20
67777;DHT22;54576;52.020;5.536;2022-08-30T15:06:57;24.40;47.00
67777;DHT22;54576;52.020;5.536;2022-08-30T15:09:24;24.40;46.80
67777;DHT22;54576;52.020;5.536;2022-08-30T15:11:55;24.40;46.80
67777;DHT22;54576;52.020;5.536;2022-08-30T15:14:22;24.20;46.50
67777;DHT22;54576;52.020;5.536;2022-08-30T15:16:48;24.30;47.80
67777;DHT22;54576;52.020;5.536;2022-08-30T15:19:13;24.30;46.80
67777;DHT22;54576;52.020;5.536;2022-08-30T15:21:42;24.20;46.60
67777;DHT22;54576;52.020;5.536;2022-08-30T15:24:10;24.20;46.40
67777;DHT22;54576;52.020;5.536;2022-08-30T15:26:36;24.10;46.60
67777;DHT22;54576;52.020;5.536;2022-08-30T15:29:07;24.20;46.40
67777;DHT22;54576;52.020;5.536;2022-08-30T15:31:33;24.30;47.00
67777;DHT22;54576;52.020;5.536;2022-08-30T15:33:59;24.20;46.60
67777;DHT22;54576;52.020;5.536;2022-08-30T15:36:26;24.10;46.40
67777;DHT22;54576;52.020;5.536;2022-08-30T15:38:52;24.10;46.70
67777;DHT22;54576;52.020;5.536;2022-08-30T15:41:21;24.10;47.10
67777;DHT22;54576;52.020;5.536;2022-08-30T15:43:48;24.10;46.70
67777;DHT22;54576;52.020;5.536;2022-08-30T15:46:26;24.10;46.70
67777;DHT22;54576;52.020;5.536;2022-08-30T15:48:56;24.10;45.60
67777;DHT22;54576;52.020;5.536;2022-08-30T15:51:23;24.10;56.30
67777;DHT22;54576;52.020;5.536;2022-08-30T15:53:50;24.10;56.30
67777;DHT22;54576;52.020;5.536;2022-08-30T15:56:15;24.10;57.40
67777;DHT22;54576;52.020;5.536;2022-08-30T15:58:41;24.10;56.30
67777;DHT22;54576;52.020;5.536;2022-08-30T16:01:08;24.10;56.40
67777;DHT22;54576;52.020;5.536;2022-08-30T16:03:34;24.10;56.60
67777;DHT22;54576;52.020;5.536;2022-08-30T16:06:01;24.10;56.20
67777;DHT22;54576;52.020;5.536;2022-08-30T16:08:28;24.10;58.70
67777;DHT22;54576;52.020;5.536;2022-08-30T16:10:54;24.00;68.10
67777;DHT22;54576;52.020;5.536;2022-08-30T16:13:19;24.00;73.70
67777;DHT22;54576;52.020;5.536;2022-08-30T16:15:45;24.00;69.80
67777;DHT22;54576;52.020;5.536;2022-08-30T16:18:12;23.90;57.90
67777;DHT22;54576;52.020;5.536;2022-08-30T16:20:41;23.80;56.00
67777;DHT22;54576;52.020;5.536;2022-08-30T16:23:08;23.80;56.40
67777;DHT22;54576;52.020;5.536;2022-08-30T16:25:33;23.70;60.70
67777;DHT22;54576;52.020;5.536;2022-08-30T16:27:59;23.70;61.30
67777;DHT22;54576;52.020;5.536;2022-08-30T16:30:24;23.70;61.10
67777;DHT22;54576;52.020;5.536;2022-08-30T16:32:51;23.60;45.80
67777;DHT22;54576;52.020;5.536;2022-08-30T16:35:17;23.60;45.40
67777;DHT22;54576;52.020;5.536;2022-08-30T16:37:43;23.50;45.60
67777;DHT22;54576;52.020;5.536;2022-08-30T16:40:09;23.50;45.60
67777;DHT22;54576;52.020;5.536;2022-08-30T16:42:34;23.50;45.60
67777;DHT22;54576;52.020;5.536;2022-08-30T16:45:00;23.50;47.30
67777;DHT22;54576;52.020;5.536;2022-08-30T16:47:26;23.40;45.70
67777;DHT22;54576;52.020;5.536;2022-08-30T16:49:51;23.40;45.50
67777;DHT22;54576;52.020;5.536;2022-08-30T16:52:17;23.40;45.70
67777;DHT22;54576;52.020;5.536;2022-08-30T16:54:42;23.30;45.70
67777;DHT22;54576;52.020;5.536;2022-08-30T16:57:08;23.30;45.00
67777;DHT22;54576;52.020;5.536;2022-08-30T16:59:35;23.30;45.50
67777;DHT22;54576;52.020;5.536;2022-08-30T17:02:01;23.30;45.40
67777;DHT22;54576;52.020;5.536;2022-08-30T17:04:27;23.20;45.50
67777;DHT22;54576;52.020;5.536;2022-08-30T17:06:52;23.20;45.50
67777;DHT22;54576;52.020;5.536;2022-08-30T17:09:19;23.10;50.50
67777;DHT22;54576;52.020;5.536;2022-08-30T17:11:45;23.10;45.40
67777;DHT22;54576;52.020;5.536;2022-08-30T17:14:11;23.10;45.60
67777;DHT22;54576;52.020;5.536;2022-08-30T17:16:36;23.10;51.80